createdAt,value
2022-11-11T00:01:12.938Z,99963.38
2022-11-11T00:03:40.460Z,99963.59
2022-11-11T00:06:10.969Z,99984.97
2022-11-11T00:08:38.182Z,99962.03
2022-11-11T00:11:10.968Z,99987.00
2022-11-11T00:13:39.083Z,99969.50
2022-11-11T00:16:12.105Z,99971.31
2022-11-11T00:18:58.751Z,99982.16
2022-11-11T00:21:44.670Z,99991.09
2022-11-11T00:24:49.353Z,99987.63
2022-11-11T00:27:17.695Z,100001.97
2022-11-11T00:29:48.477Z,99987.94
2022-11-11T00:32:25.132Z,99999.56
2022-11-11T00:35:12.528Z,99988.22
2022-11-11T00:37:39.821Z,99993.53
2022-11-11T00:40:07.927Z,99994.47
2022-11-11T00:42:35.343Z,99983.00
2022-11-11T00:45:02.714Z,100000.00
2022-11-11T00:47:48.376Z,100012.44
2022-11-11T00:50:39.380Z,99990.91
2022-11-11T00:53:11.634Z,100025.84
2022-11-11T00:55:39.039Z,100032.94
2022-11-11T00:58:06.205Z,100020.63
2022-11-11T01:00:33.480Z,100008.44
2022-11-11T01:03:00.400Z,100014.72
2022-11-11T01:05:27.755Z,100010.38
2022-11-11T01:07:54.778Z,100013.03
2022-11-11T01:10:41.350Z,100019.19
2022-11-11T01:13:17.064Z,99986.22
2022-11-11T01:15:47.336Z,100029.06
2022-11-11T01:18:16.461Z,100027.38
2022-11-11T01:20:44.098Z,100019.53
2022-11-11T01:23:12.594Z,100020.50
2022-11-11T01:25:42.004Z,100020.50
2022-11-11T01:28:09.631Z,100038.34
2022-11-11T01:30:37.329Z,100024.22
2022-11-11T01:33:05.103Z,100032.19
2022-11-11T01:35:32.661Z,100022.53
2022-11-11T01:38:00.074Z,100035.28
2022-11-11T01:40:27.308Z,100047.25
2022-11-11T01:43:17.559Z,100043.75
2022-11-11T01:46:01.796Z,100038.56
2022-11-11T01:48:54.418Z,100025.31
2022-11-11T01:51:45.840Z,100022.66
2022-11-11T01:54:30.742Z,100042.19
2022-11-11T01:57:06.804Z,100038.56
2022-11-11T01:59:36.309Z,100055.34
2022-11-11T02:02:10.252Z,100060.75
2022-11-11T02:04:56.459Z,100059.91
2022-11-11T02:07:26.493Z,100059.09
2022-11-11T02:09:54.452Z,100057.38
2022-11-11T02:12:40.653Z,100070.66
2022-11-11T02:15:08.024Z,100081.25
2022-11-11T02:17:35.201Z,100088.38
2022-11-11T02:20:04.196Z,100063.63
2022-11-11T02:22:51.943Z,100072.56
2022-11-11T02:25:23.270Z,100047.72
2022-11-11T02:27:53.548Z,100029.41
2022-11-11T02:30:21.801Z,100041.47
2022-11-11T02:32:51.952Z,100045.81
2022-11-11T02:35:30.033Z,100052.06
2022-11-11T02:37:56.953Z,100056.66
2022-11-11T02:40:38.845Z,100060.03
2022-11-11T02:43:06.523Z,100060.97
2022-11-11T02:45:33.574Z,100040.00
2022-11-11T02:48:00.698Z,100059.09
2022-11-11T02:50:27.850Z,100075.00
2022-11-11T02:52:54.827Z,100061.84
2022-11-11T02:55:21.957Z,100066.28
2022-11-11T02:57:48.945Z,100060.97
2022-11-11T03:00:16.912Z,100054.00
2022-11-11T03:02:44.002Z,100061.84
2022-11-11T03:05:10.904Z,100055.66
2022-11-11T03:07:38.091Z,100059.19
2022-11-11T03:10:05.320Z,100066.28
2022-11-11T03:12:32.151Z,100074.25
2022-11-11T03:14:59.263Z,100069.78
2022-11-11T03:17:42.458Z,100072.44
2022-11-11T03:20:33.445Z,100083.19
2022-11-11T03:23:09.061Z,100085.84
2022-11-11T03:25:58.076Z,100084.03
2022-11-11T03:28:26.144Z,100098.13
2022-11-11T03:30:54.241Z,100079.06
2022-11-11T03:33:21.416Z,100068.94
2022-11-11T03:35:48.428Z,100057.81
2022-11-11T03:38:24.952Z,100076.91
2022-11-11T03:40:57.447Z,100081.13
2022-11-11T03:43:27.165Z,100088.28
2022-11-11T03:45:56.388Z,100078.47
2022-11-11T03:48:23.951Z,100083.91
2022-11-11T03:50:51.330Z,100080.31
2022-11-11T03:53:23.474Z,100068.84
2022-11-11T03:55:51.518Z,100080.31
2022-11-11T03:58:19.198Z,100073.16
2022-11-11T04:00:46.019Z,100085.63
2022-11-11T04:03:37.127Z,100076.41
2022-11-11T04:06:27.701Z,100074.16
2022-11-11T04:09:13.076Z,100067.03
2022-11-11T04:11:46.371Z,100065.22
2022-11-11T04:14:32.897Z,100058.94
2022-11-11T04:16:59.804Z,100067.75
2022-11-11T04:19:45.426Z,100073.06
2022-11-11T04:22:12.257Z,100070.41
2022-11-11T04:24:57.695Z,100051.84
2022-11-11T04:27:24.481Z,100048.22
2022-11-11T04:29:52.442Z,100054.38
2022-11-11T04:32:36.301Z,100058.81
2022-11-11T04:35:07.802Z,100051.84
2022-11-11T04:38:12.740Z,100043.75
2022-11-11T04:40:58.082Z,100032.28
2022-11-11T04:43:25.276Z,100034.00
2022-11-11T04:45:52.243Z,100027.81
2022-11-11T04:48:21.185Z,100023.38
2022-11-11T04:50:48.068Z,100018.06
2022-11-11T04:53:15.666Z,100011.91
2022-11-11T04:56:02.716Z,100013.59
2022-11-11T04:58:35.287Z,100023.38
2022-11-11T05:01:02.992Z,100021.56
2022-11-11T05:03:29.831Z,100011.91
2022-11-11T05:06:18.083Z,100016.38
2022-11-11T05:09:01.720Z,100043.66
2022-11-11T05:11:33.626Z,100049.91
2022-11-11T05:14:24.378Z,100041.00
2022-11-11T05:17:12.459Z,100034.00
2022-11-11T05:19:58.292Z,100040.16
2022-11-11T05:22:28.128Z,100034.84
2022-11-11T05:25:13.346Z,100040.16
2022-11-11T05:27:40.582Z,100036.63
2022-11-11T05:30:09.833Z,100036.63
2022-11-11T05:32:37.088Z,100044.59
2022-11-11T05:35:04.490Z,100020.63
2022-11-11T05:37:31.895Z,100020.63
2022-11-11T05:39:58.726Z,100010.72
2022-11-11T05:42:25.707Z,100022.91
2022-11-11T05:44:52.790Z,100020.97
2022-11-11T05:47:19.901Z,100027.78
2022-11-11T05:49:46.776Z,100030.28
2022-11-11T05:52:16.603Z,100031.16
2022-11-11T05:54:43.894Z,100013.28
2022-11-11T05:57:10.956Z,100028.50
2022-11-11T05:59:38.192Z,100021.38
2022-11-11T06:02:05.285Z,100021.72
2022-11-11T06:04:32.376Z,100020.06
2022-11-11T06:06:59.347Z,100015.34
2022-11-11T06:09:26.270Z,100015.25
2022-11-11T06:11:53.167Z,100036.97
2022-11-11T06:14:20.043Z,100014.66
2022-11-11T06:16:46.975Z,100045.44
2022-11-11T06:19:13.904Z,100035.53
2022-11-11T06:21:59.509Z,100065.22
2022-11-11T06:24:27.179Z,100070.31
2022-11-11T06:26:56.060Z,100062.84
2022-11-11T06:29:23.153Z,100040.63
2022-11-11T06:31:50.050Z,100040.97
2022-11-11T06:34:17.205Z,100064.63
2022-11-11T06:36:44.321Z,100048.94
2022-11-11T06:39:11.210Z,100066.34
2022-11-11T06:41:38.108Z,100064.31
2022-11-11T06:44:05.120Z,100065.75
2022-11-11T06:46:32.033Z,100061.41
2022-11-11T06:48:58.980Z,100091.19
2022-11-11T06:51:25.854Z,100091.81
2022-11-11T06:53:52.819Z,100112.22
2022-11-11T06:56:19.650Z,100094.59
2022-11-11T06:58:46.599Z,100100.88
2022-11-11T07:01:14.165Z,100059.47
2022-11-11T07:03:41.419Z,100095.69
2022-11-11T07:06:08.386Z,100106.06
2022-11-11T07:08:35.296Z,100097.34
2022-11-11T07:11:11.156Z,100086.72
2022-11-11T07:13:39.712Z,100092.78
2022-11-11T07:16:06.958Z,100086.50
2022-11-11T07:18:33.877Z,100084.81
2022-11-11T07:21:00.761Z,100115.59
2022-11-11T07:23:27.561Z,100125.97
2022-11-11T07:25:54.480Z,100097.25
2022-11-11T07:28:21.506Z,100133.63
2022-11-11T07:30:48.763Z,100125.03
2022-11-11T07:33:19.038Z,100129.41
2022-11-11T07:35:48.992Z,100132.16
2022-11-11T07:38:15.887Z,100134.94
2022-11-11T07:40:42.783Z,100158.00
2022-11-11T07:43:09.636Z,100157.38
2022-11-11T07:45:36.494Z,100164.47
2022-11-11T07:48:03.660Z,100173.44
2022-11-11T07:50:30.538Z,100186.00
2022-11-11T07:52:57.447Z,100190.53
2022-11-11T07:55:24.365Z,100196.84
2022-11-11T07:57:54.252Z,100196.09
2022-11-11T08:00:21.335Z,100205.97
2022-11-11T08:02:49.283Z,100188.38
2022-11-11T08:05:17.361Z,100206.97
2022-11-11T08:07:44.339Z,100202.59
2022-11-11T08:10:12.642Z,100207.19
2022-11-11T08:12:58.090Z,100203.69
2022-11-11T08:15:25.199Z,100201.97
2022-11-11T08:17:52.180Z,100209.94
2022-11-11T08:20:19.031Z,100182.00
2022-11-11T08:23:14.776Z,100222.50
2022-11-11T08:25:33.276Z,100219.97
2022-11-11T08:28:01.965Z,100231.53
2022-11-11T08:30:29.158Z,100235.13
2022-11-11T08:33:31.817Z,100244.94
2022-11-11T08:35:54.712Z,100259.16
2022-11-11T08:38:23.783Z,100256.50
2022-11-11T08:40:52.226Z,100268.94
2022-11-11T08:43:20.268Z,100278.81
2022-11-11T08:45:47.459Z,100286.78
2022-11-11T08:48:14.857Z,100281.47
2022-11-11T08:50:42.204Z,100286.78
2022-11-11T08:53:09.740Z,100293.03
2022-11-11T08:55:37.788Z,100283.41
2022-11-11T08:58:07.263Z,100280.75
2022-11-11T09:00:34.921Z,100271.50
2022-11-11T09:03:04.244Z,100274.47
2022-11-11T09:05:32.176Z,100272.78
2022-11-11T09:08:03.508Z,100282.53
2022-11-11T09:10:30.576Z,100272.78
2022-11-11T09:12:59.120Z,100290.50
2022-11-11T09:15:27.277Z,100279.75
2022-11-11T09:17:54.980Z,100287.00
2022-11-11T09:20:25.595Z,100291.38
2022-11-11T09:22:56.356Z,100293.03
2022-11-11T09:25:24.042Z,100279.38
2022-11-11T09:27:56.048Z,100284.69
2022-11-11T09:30:23.584Z,100299.41
2022-11-11T09:32:51.274Z,100304.66
2022-11-11T09:35:18.827Z,100304.66
2022-11-11T09:38:00.113Z,100297.63
2022-11-11T09:40:35.951Z,100294.97
2022-11-11T09:43:11.230Z,100294.03
2022-11-11T09:45:47.914Z,100282.41
2022-11-11T09:48:55.188Z,100281.34
2022-11-11T09:51:43.776Z,100274.47
2022-11-11T09:54:22.995Z,100288.47
2022-11-11T09:56:50.588Z,100276.16
2022-11-11T09:59:24.774Z,100293.78
2022-11-11T10:01:59.558Z,100307.91
2022-11-11T10:04:39.190Z,100280.50
2022-11-11T10:07:23.804Z,100281.25
2022-11-11T10:10:19.925Z,100291.75
2022-11-11T10:12:53.644Z,100271.25
2022-11-11T10:15:21.614Z,100271.38
2022-11-11T10:17:55.176Z,100277.41
2022-11-11T10:20:34.809Z,100283.56
2022-11-11T10:23:09.190Z,100266.69
2022-11-11T10:25:38.436Z,100264.84
2022-11-11T10:28:06.310Z,100257.88
2022-11-11T10:30:33.830Z,100259.53
2022-11-11T10:33:17.444Z,100250.63
2022-11-11T10:35:45.710Z,100252.34
2022-11-11T10:38:33.636Z,100245.31
2022-11-11T10:41:12.022Z,100216.00
2022-11-11T10:43:39.810Z,100230.09
2022-11-11T10:46:17.828Z,100250.41
2022-11-11T10:48:44.989Z,100260.16
2022-11-11T10:51:13.558Z,100263.69
2022-11-11T10:53:47.003Z,100237.13
2022-11-11T10:56:28.976Z,100259.31
2022-11-11T10:59:02.016Z,100253.19
2022-11-11T11:01:36.620Z,100239.06
2022-11-11T11:04:17.936Z,100258.50
2022-11-11T11:06:48.565Z,100251.56
2022-11-11T11:09:32.384Z,100261.25
2022-11-11T11:12:10.267Z,100269.22
2022-11-11T11:14:41.581Z,100257.75
2022-11-11T11:17:15.504Z,100261.69
2022-11-11T11:19:42.641Z,100236.50
2022-11-11T11:22:09.895Z,100279.75
2022-11-11T11:24:43.429Z,100275.47
2022-11-11T11:27:11.154Z,100282.50
2022-11-11T11:29:46.198Z,100300.34
2022-11-11T11:32:19.417Z,100319.88
2022-11-11T11:34:55.134Z,100325.19
2022-11-11T11:37:25.556Z,100330.50
2022-11-11T11:40:04.572Z,100346.44
2022-11-11T11:42:36.416Z,100325.19
2022-11-11T11:45:26.269Z,100321.59
2022-11-11T11:48:33.940Z,100344.22
2022-11-11T11:51:14.564Z,100367.69
2022-11-11T11:53:51.459Z,100393.38
2022-11-11T11:56:26.455Z,100393.50
2022-11-11T11:59:23.748Z,100402.44
2022-11-11T12:02:12.066Z,100409.56
2022-11-11T12:05:12.200Z,100407.94
2022-11-11T12:08:16.284Z,100412.31
2022-11-11T12:11:41.911Z,100395.53
2022-11-11T12:14:29.993Z,100389.34
2022-11-11T12:17:08.886Z,100412.44
2022-11-11T12:19:58.133Z,100416.88
2022-11-11T12:23:06.462Z,100419.41
2022-11-11T12:25:42.492Z,100427.50
2022-11-11T12:29:06.071Z,100433.69
2022-11-11T12:32:06.522Z,100440.78
2022-11-11T12:34:36.311Z,100436.34
2022-11-11T12:37:22.163Z,100434.63
2022-11-11T12:39:59.196Z,100455.00
2022-11-11T12:42:41.756Z,100459.47
2022-11-11T12:45:18.840Z,100463.94
2022-11-11T12:48:09.146Z,100462.25
2022-11-11T12:50:46.867Z,100460.53
2022-11-11T12:53:19.604Z,100481.78
2022-11-11T12:56:01.726Z,100471.16
2022-11-11T12:58:39.413Z,100472.84
2022-11-11T13:01:38.855Z,100456.19
2022-11-11T13:04:21.252Z,100458.84
2022-11-11T13:06:57.168Z,100460.53
2022-11-11T13:09:39.468Z,100447.38
2022-11-11T13:12:36.178Z,100457.88
2022-11-11T13:15:07.337Z,100456.19
2022-11-11T13:17:34.419Z,100445.56
2022-11-11T13:20:12.328Z,100447.25
2022-11-11T13:22:39.349Z,100441.22
2022-11-11T13:25:09.821Z,100445.66
2022-11-11T13:27:37.103Z,100457.13
2022-11-11T13:30:25.702Z,100444.84
2022-11-11T13:33:10.894Z,100460.84
2022-11-11T13:35:49.766Z,100462.66
2022-11-11T13:38:37.771Z,100452.03
2022-11-11T13:41:07.562Z,100428.59
2022-11-11T13:43:45.804Z,100437.09
2022-11-11T13:46:42.416Z,100419.31
2022-11-11T13:49:35.523Z,100435.38
2022-11-11T13:52:22.677Z,100431.78
2022-11-11T13:55:01.387Z,100411.47
2022-11-11T13:57:32.532Z,100435.25
2022-11-11T14:00:01.797Z,100422.75
2022-11-11T14:02:34.162Z,100443.13
2022-11-11T14:05:06.425Z,100451.09
2022-11-11T14:07:47.625Z,100450.25
2022-11-11T14:10:17.503Z,100451.81
2022-11-11T14:12:45.273Z,100453.09
2022-11-11T14:15:41.668Z,100457.13
2022-11-11T14:18:31.008Z,100463.72
2022-11-11T14:20:58.304Z,100485.59
2022-11-11T14:23:37.451Z,100490.06
2022-11-11T14:26:07.161Z,100501.53
2022-11-11T14:28:42.266Z,100505.13
2022-11-11T14:31:16.350Z,100491.00
2022-11-11T14:34:21.729Z,100499.81
2022-11-11T14:37:00.710Z,100497.50
2022-11-11T14:39:52.410Z,100510.44
2022-11-11T14:42:45.118Z,100508.75
2022-11-11T14:45:25.733Z,100519.38
2022-11-11T14:47:53.181Z,100525.63
2022-11-11T14:50:33.050Z,100521.19
2022-11-11T14:53:02.852Z,100534.47
2022-11-11T14:55:30.994Z,100519.38
2022-11-11T14:58:18.691Z,100531.28
2022-11-11T15:00:48.308Z,100546.88
2022-11-11T15:03:18.276Z,100548.59
2022-11-11T15:05:51.024Z,100546.88
2022-11-11T15:08:48.742Z,100540.72
2022-11-11T15:11:24.541Z,100555.69
2022-11-11T15:14:16.572Z,100550.38
2022-11-11T15:17:02.409Z,100553.13
2022-11-11T15:20:08.549Z,100573.44
2022-11-11T15:22:52.692Z,100577.03
2022-11-11T15:25:49.145Z,100591.16
2022-11-11T15:28:25.215Z,100579.69
2022-11-11T15:31:13.943Z,100576.19
2022-11-11T15:34:11.443Z,100574.38
2022-11-11T15:37:06.867Z,100595.72
2022-11-11T15:39:56.097Z,100603.81
2022-11-11T15:42:34.165Z,100594.88
2022-11-11T15:45:04.278Z,100601.03
2022-11-11T15:47:36.464Z,100613.44
2022-11-11T15:50:04.005Z,100609.94
2022-11-11T15:52:37.709Z,100610.78
2022-11-11T15:55:22.068Z,100616.09
2022-11-11T15:57:49.084Z,100605.41
2022-11-11T16:00:25.056Z,100614.19
2022-11-11T16:02:55.452Z,100615.16
2022-11-11T16:05:33.675Z,100627.47
2022-11-11T16:08:09.671Z,100624.81
2022-11-11T16:10:38.679Z,100622.16
2022-11-11T16:13:14.561Z,100616.75
2022-11-11T16:15:46.422Z,100635.44
2022-11-11T16:18:19.760Z,100632.22
2022-11-11T16:20:53.725Z,100642.56
2022-11-11T16:23:22.340Z,100627.69
2022-11-11T16:25:53.634Z,100635.44
2022-11-11T16:28:21.883Z,100643.41
2022-11-11T16:30:48.966Z,100634.50
2022-11-11T16:33:28.191Z,100625.59
2022-11-11T16:35:55.288Z,100659.13
2022-11-11T16:38:32.928Z,100646.81
2022-11-11T16:41:00.232Z,100664.63
2022-11-11T16:43:34.103Z,100673.56
2022-11-11T16:46:07.841Z,100682.38
2022-11-11T16:48:42.081Z,100685.03
2022-11-11T16:51:33.904Z,100680.69
2022-11-11T16:54:10.480Z,100679.28
2022-11-11T16:56:42.945Z,100691.19
2022-11-11T16:59:16.661Z,100701.72
2022-11-11T17:01:45.666Z,100705.13
2022-11-11T17:04:13.145Z,100689.31
2022-11-11T17:07:00.033Z,100684.94
2022-11-11T17:09:45.584Z,100718.59
2022-11-11T17:12:13.896Z,100717.53
2022-11-11T17:14:40.938Z,100722.97
2022-11-11T17:17:10.582Z,100721.16
2022-11-11T17:19:37.603Z,100703.31
2022-11-11T17:22:06.644Z,100730.72
2022-11-11T17:24:33.590Z,100733.28
2022-11-11T17:27:00.770Z,100731.59
2022-11-11T17:29:27.907Z,100738.38
2022-11-11T17:31:58.501Z,100750.59
2022-11-11T17:34:25.434Z,100753.25
2022-11-11T17:36:53.020Z,100748.69
2022-11-11T17:39:20.109Z,100761.03
2022-11-11T17:41:47.040Z,100762.75
2022-11-11T17:44:14.009Z,100767.09
2022-11-11T17:46:40.901Z,100769.53
2022-11-11T17:49:08.222Z,100769.25
2022-11-11T17:51:35.301Z,100765.53
2022-11-11T17:54:02.385Z,100776.94
2022-11-11T17:56:29.639Z,100787.31
2022-11-11T17:58:56.577Z,100794.63
2022-11-11T18:01:23.703Z,100794.19
2022-11-11T18:03:54.898Z,100804.41
2022-11-11T18:06:22.034Z,100821.88
2022-11-11T18:08:49.116Z,100846.38
2022-11-11T18:11:16.284Z,100844.53
2022-11-11T18:13:43.432Z,100844.59
2022-11-11T18:16:20.704Z,100862.16
2022-11-11T18:18:49.075Z,100858.19
2022-11-11T18:21:15.929Z,100889.66
2022-11-11T18:23:43.072Z,100899.97
2022-11-11T18:26:10.009Z,100921.03
2022-11-11T18:28:39.106Z,100936.88
2022-11-11T18:31:11.796Z,100951.56
2022-11-11T18:33:45.029Z,100961.81
2022-11-11T18:36:15.728Z,100981.09
2022-11-11T18:38:43.435Z,100984.75
2022-11-11T18:41:14.912Z,100987.94
2022-11-11T18:43:52.553Z,101000.97
2022-11-11T18:46:23.270Z,101018.22
2022-11-11T18:48:57.540Z,101015.25
2022-11-11T18:51:25.418Z,101022.53
2022-11-11T18:53:52.978Z,101026.78
2022-11-11T18:56:22.258Z,101044.13
2022-11-11T18:58:53.125Z,101041.63
2022-11-11T19:01:26.207Z,101054.53
2022-11-11T19:03:56.080Z,101060.38
2022-11-11T19:06:23.127Z,101065.28
2022-11-11T19:08:55.525Z,101079.16
2022-11-11T19:11:22.714Z,101092.03
2022-11-11T19:13:49.819Z,101105.81
2022-11-11T19:16:19.577Z,101111.56
2022-11-11T19:18:47.355Z,101123.63
2022-11-11T19:21:17.302Z,101137.38
2022-11-11T19:23:46.799Z,101135.34
2022-11-11T19:26:14.728Z,101140.94
2022-11-11T19:28:43.341Z,101147.75
2022-11-11T19:31:15.881Z,101165.16
2022-11-11T19:33:44.490Z,101160.88
2022-11-11T19:36:19.437Z,101173.41
2022-11-11T19:38:48.504Z,101182.88
2022-11-11T19:41:20.886Z,101169.97
2022-11-11T19:43:50.194Z,101204.66
2022-11-11T19:46:20.166Z,101207.72
2022-11-11T19:48:49.274Z,101203.13
2022-11-11T19:51:20.667Z,101208.47
2022-11-11T19:53:49.507Z,101213.59
2022-11-11T19:56:21.344Z,101220.44
2022-11-11T19:58:49.771Z,101232.91
2022-11-11T20:01:20.167Z,101232.59
2022-11-11T20:03:48.119Z,101247.53
2022-11-11T20:06:31.438Z,101242.84
2022-11-11T20:09:01.877Z,101246.25
2022-11-11T20:11:30.171Z,101255.78
2022-11-11T20:13:58.254Z,101251.38
2022-11-11T20:16:25.892Z,101263.44
2022-11-11T20:18:57.316Z,101262.91
2022-11-11T20:21:25.212Z,101263.78
2022-11-11T20:23:52.666Z,101266.72
2022-11-11T20:26:20.410Z,101273.59
2022-11-11T20:28:48.286Z,101283.28
2022-11-11T20:31:18.645Z,101293.75
2022-11-11T20:33:49.651Z,101304.41
2022-11-11T20:36:18.401Z,101317.94
2022-11-11T20:38:45.649Z,101321.59
2022-11-11T20:41:14.829Z,101332.25
2022-11-11T20:43:42.570Z,101344.81
2022-11-11T20:46:12.077Z,101357.97
2022-11-11T20:48:44.056Z,101359.88
2022-11-11T20:51:17.363Z,101359.28
2022-11-11T20:53:44.838Z,101360.41
2022-11-11T20:56:22.445Z,101363.00
2022-11-11T20:58:53.229Z,101353.16
2022-11-11T21:01:26.399Z,101355.28
2022-11-11T21:04:00.756Z,101368.53
2022-11-11T21:06:32.386Z,101381.97
2022-11-11T21:09:00.068Z,101384.44
2022-11-11T21:11:27.961Z,101386.16
2022-11-11T21:13:56.842Z,101395.09
2022-11-11T21:16:29.713Z,101403.97
2022-11-11T21:18:58.762Z,101413.56
2022-11-11T21:21:29.904Z,101433.00
2022-11-11T21:24:02.348Z,101437.47
2022-11-11T21:26:31.316Z,101450.38
2022-11-11T21:28:58.859Z,101471.50
2022-11-11T21:31:29.252Z,101476.94
2022-11-11T21:34:08.695Z,101492.09
2022-11-11T21:36:38.016Z,101499.13
2022-11-11T21:39:06.463Z,101500.19
2022-11-11T21:41:37.528Z,101516.38
2022-11-11T21:44:07.297Z,101531.16
2022-11-11T21:46:36.504Z,101516.72
2022-11-11T21:49:05.148Z,101518.06
2022-11-11T21:51:34.576Z,101525.50
2022-11-11T21:54:07.796Z,101532.16
2022-11-11T21:56:37.190Z,101544.72
2022-11-11T21:59:06.523Z,101551.94
2022-11-11T22:01:40.513Z,101556.41
2022-11-11T22:04:11.234Z,101557.66
2022-11-11T22:06:38.607Z,101565.25
2022-11-11T22:09:06.846Z,101572.69
2022-11-11T22:11:36.333Z,101574.69
2022-11-11T22:14:04.865Z,101583.13
2022-11-11T22:16:35.222Z,101591.41
2022-11-11T22:19:07.949Z,101597.00
2022-11-11T22:21:37.381Z,101607.00
2022-11-11T22:24:07.727Z,101624.88
2022-11-11T22:26:40.629Z,101627.88
2022-11-11T22:29:11.648Z,101618.38
2022-11-11T22:31:39.257Z,101609.69
2022-11-11T22:34:11.789Z,101608.16
2022-11-11T22:36:39.629Z,101616.34
2022-11-11T22:39:08.489Z,101621.84
2022-11-11T22:41:41.157Z,101625.63
2022-11-11T22:44:08.637Z,101625.78
2022-11-11T22:46:36.578Z,101620.66
2022-11-11T22:49:07.005Z,101638.50
2022-11-11T22:51:34.415Z,101630.81
2022-11-11T22:54:06.726Z,101636.28
2022-11-11T22:56:35.639Z,101641.75
2022-11-11T22:59:06.335Z,101656.09
2022-11-11T23:01:34.463Z,101658.94
2022-11-11T23:04:03.686Z,101666.16
2022-11-11T23:06:33.392Z,101663.66
2022-11-11T23:09:00.470Z,101666.41
2022-11-11T23:11:30.139Z,101664.78
2022-11-11T23:14:03.861Z,101666.69
2022-11-11T23:16:31.589Z,101679.19
2022-11-11T23:18:59.944Z,101679.34
2022-11-11T23:21:28.740Z,101693.63
2022-11-11T23:23:56.833Z,101706.16
2022-11-11T23:26:26.607Z,101702.97
2022-11-11T23:28:53.873Z,101709.06
2022-11-11T23:31:26.132Z,101717.28
2022-11-11T23:33:54.516Z,101716.44
2022-11-11T23:36:24.454Z,101704.16
2022-11-11T23:38:52.251Z,101714.03
2022-11-11T23:41:20.016Z,101719.50
2022-11-11T23:43:47.291Z,101723.19
2022-11-11T23:46:14.426Z,101735.63
2022-11-11T23:48:42.026Z,101739.31
2022-11-11T23:51:09.073Z,101737.69
2022-11-11T23:53:37.919Z,101738.53
2022-11-11T23:56:05.802Z,101743.09
2022-11-11T23:58:32.985Z,101748.47
